Lecko — PBKR — position and weather

sailwx.info

Track history (hours):
 
Tides and Currents Weather Stations Pressure Air Temp Water Temp Dewpoint Dewpoint Depression Visibility Wind Speed Wind Dir Waves Ship Positions

Lecko

Last reported at 2018-Jun-09 06:20 UTC. Time now 2018-Jun-21 19:51 UTC.
Position N 56°50' E 012°25'.
Warning: this ship's position is 12 days out of date.

Length 89 m; draft 3.7 m.

Type: Cargo ship. MMSI: 244063000.

Date/timePositionNaut miles runAvg speedWind from/ knotsBaromVisibWave heightAir tempDewpointWater temp
2018-Jun-09 06:20N 56°50' E 012°25'2 7.5
2018-Jun-09 06:00N 56°49' E 012°22'56 8.0
2018-Jun-08 22:57N 56°08' E 011°12'4 7.9
2018-Jun-08 22:29N 56°05' E 011°09'13 8.0
2018-Jun-08 20:54N 55°54' E 010°56'5 8.6
2018-Jun-08 20:22N 55°50' E 010°51'3 8.7
2018-Jun-08 19:59N 55°47' E 010°49'35 7.9
2018-Jun-08 15:34N 55°14' E 011°06'1 9.4
2018-Jun-08 15:31N 55°13' E 011°06'3 6.6
2018-Jun-08 15:01N 55°11' E 011°11'4 7.2
2018-Jun-08 14:30N 55°09' E 011°16'510.2
2018-Jun-08 14:01N 55°09' E 011°25'611.5
2018-Jun-08 13:30N 55°09' E 011°35'4 7.8
2018-Jun-08 12:57N 55°12' E 011°41'2 5.3
2018-Jun-08 12:30N 55°13' E 011°45'1 0.1
2018-Jun-08 04:18N 55°14' E 011°45'4 0.4
2018-Jun-07 19:17N 55°11' E 011°40'2 6.1
2018-Jun-07 19:00N 55°10' E 011°38'611.0
2018-Jun-07 18:30N 55°09' E 011°29'510.1
2018-Jun-07 18:00N 55°07' E 011°20'4 7.1
2018-Jun-07 17:30N 55°09' E 011°14'5 9.2
2018-Jun-07 17:00N 55°12' E 011°08'80 8.2
2018-Jun-07 07:19N 56°31' E 011°02'3 9.5
2018-Jun-07 07:00N 56°34' E 011°01'5 9.4
2018-Jun-07 06:30N 56°39' E 011°00'5 9.4
2018-Jun-07 06:00N 56°44' E 010°59'5 9.4
2018-Jun-07 05:30N 56°48' E 010°56'5 9.6
2018-Jun-07 05:00N 56°53' E 010°54'5 9.8
2018-Jun-07 04:30N 56°57' E 010°52'510.0
2018-Jun-07 03:59N 57°02' E 010°49'510.1
2018-Jun-07 03:30N 57°07' E 010°47'510.3
2018-Jun-07 02:59N 57°12' E 010°44'5 9.9
2018-Jun-07 02:30N 57°17' E 010°42'6 9.7
2018-Jun-07 01:56N 57°22' E 010°42'4 9.7
2018-Jun-07 01:30N 57°27' E 010°43'5 9.7
2018-Jun-07 01:00N 57°31' E 010°43'510.2
2018-Jun-07 00:30N 57°36' E 010°44'510.1
2018-Jun-07 00:00N 57°41' E 010°45'510.0
2018-Jun-06 23:30N 57°46' E 010°46'5 9.7
2018-Jun-06 23:00N 57°51' E 010°46'510.0
2018-Jun-06 22:30N 57°56' E 010°45'5 9.7
2018-Jun-06 22:00N 58°01' E 010°45'6 9.9
2018-Jun-06 21:26N 58°07' E 010°45'6 9.7
2018-Jun-06 20:52N 58°12' E 010°45'4 9.8
2018-Jun-06 20:26N 58°16' E 010°45'4 9.9
2018-Jun-06 20:00N 58°21' E 010°44'5 9.7
2018-Jun-06 19:30N 58°26' E 010°44'5 9.6
2018-Jun-06 19:00N 58°30' E 010°44'5 9.8
2018-Jun-06 18:30N 58°35' E 010°43'510.3
2018-Jun-06 18:00N 58°40' E 010°43'611.4
2018-Jun-06 17:30N 58°46' E 010°43'611.4
2018-Jun-06 17:00N 58°52' E 010°43'611.3
2018-Jun-06 16:30N 58°57' E 010°43'510.4
2018-Jun-06 16:01N 59°02' E 010°47'5 9.0
2018-Jun-06 15:30N 59°01' E 010°55'5 9.2
2018-Jun-06 15:00N 59°06' E 010°58'510.7
2018-Jun-06 14:30N 59°11' E 010°57'0 0.1
2018-Jun-06 14:00N 59°11' E 010°57'0 0.0
2018-Jun-06 13:30N 59°11' E 010°57'0 0.0
2018-Jun-06 13:00N 59°11' E 010°57'0 0.0
2018-Jun-06 12:30N 59°11' E 010°57'0 0.0
2018-Jun-06 12:00N 59°11' E 010°57'0 0.0
2018-Jun-06 11:30N 59°11' E 010°57'0 0.0
2018-Jun-06 11:00N 59°11' E 010°57'0 0.0
2018-Jun-06 10:30N 59°11' E 010°57'0 0.0
2018-Jun-06 10:00N 59°11' E 010°57'0 0.0
2018-Jun-06 09:30N 59°11' E 010°57'0 0.0
2018-Jun-06 09:00N 59°11' E 010°57'0 0.0
2018-Jun-06 08:30N 59°11' E 010°57'0 0.0
2018-Jun-06 08:00N 59°11' E 010°57'0 0.0
2018-Jun-06 07:30N 59°11' E 010°57'0 0.0
2018-Jun-06 07:00N 59°11' E 010°57'0 0.0
2018-Jun-06 06:30N 59°11' E 010°57'0 0.0
2018-Jun-06 06:00N 59°11' E 010°57'4 8.2
2018-Jun-06 05:30N 59°07' E 010°58'510.8
2018-Jun-06 05:01N 59°01' E 010°58'5 9.3
2018-Jun-06 04:30N 59°02' E 010°49'4 8.5
2018-Jun-06 04:00N 58°59' E 010°43'510.6
2018-Jun-06 03:30N 58°54' E 010°45'510.5
2018-Jun-06 03:00N 58°49' E 010°47'510.6
2018-Jun-06 02:30N 58°44' E 010°48'510.2
2018-Jun-06 02:00N 58°39' E 010°50'510.2
2018-Jun-06 01:30N 58°34' E 010°52'510.2
2018-Jun-06 01:00N 58°29' E 010°53'510.3
2018-Jun-06 00:29N 58°24' E 010°57'610.2
2018-Jun-05 23:52N 58°18' E 011°01'2310.4
2018-Jun-05 21:39N 57°56' E 011°16'610.2
2018-Jun-05 21:06N 57°51' E 011°19'1 9.9
2018-Jun-05 21:00N 57°50' E 011°20'5 9.8
2018-Jun-05 20:30N 57°45' E 011°23'5 9.9
2018-Jun-05 20:00N 57°41' E 011°26'510.2
2018-Jun-05 19:30N 57°36' E 011°30'510.7
2018-Jun-05 19:00N 57°31' E 011°35'510.6
2018-Jun-05 18:30N 57°27' E 011°40'2 0.2
2018-Jun-05 04:06N 57°25' E 011°42'111.8
2018-Jun-05 04:00N 57°26' E 011°41'611.7
2018-Jun-05 03:30N 57°31' E 011°37'611.4
2018-Jun-05 03:00N 57°36' E 011°33'510.9
2018-Jun-05 02:30N 57°41' E 011°29'510.6
2018-Jun-05 02:00N 57°46' E 011°25'610.7
2018-Jun-05 01:28N 57°52' E 011°22'610.5
2018-Jun-05 00:55N 57°57' E 011°17'3210.5
2018-Jun-04 21:54N 58°26' E 010°55'410.8
2018-Jun-04 21:30N 58°30' E 010°53'510.8
2018-Jun-04 21:00N 58°36' E 010°50'511.0
2018-Jun-04 20:30N 58°41' E 010°47'611.2
2018-Jun-04 20:00N 58°46' E 010°44'611.2
2018-Jun-04 19:30N 58°52' E 010°42'611.6
2018-Jun-04 19:00N 58°57' E 010°38'611.7
2018-Jun-04 18:30N 59°03' E 010°35'5 9.4
2018-Jun-04 18:00N 59°08' E 010°34'611.2
2018-Jun-04 17:30N 59°13' E 010°37'611.8
2018-Jun-04 17:00N 59°19' E 010°35'611.9
2018-Jun-04 16:30N 59°25' E 010°33'611.8
2018-Jun-04 16:00N 59°30' E 010°27'4 8.9
2018-Jun-04 15:30N 59°34' E 010°25'4 7.5
2018-Jun-04 15:00N 59°38' E 010°25'611.0
2018-Jun-04 14:30N 59°43' E 010°19'3 5.6
2018-Jun-04 14:00N 59°45' E 010°15'0 0.0
2018-Jun-04 13:28N 59°45' E 010°15'0 0.0
2018-Jun-04 12:58N 59°45' E 010°15'0 0.0
2018-Jun-04 12:28N 59°45' E 010°15'0 0.0
2018-Jun-04 11:58N 59°45' E 010°15'0 0.0
2018-Jun-04 11:28N 59°45' E 010°15'0 0.0
2018-Jun-04 10:58N 59°45' E 010°15'0 0.0
2018-Jun-04 10:28N 59°45' E 010°15'0 0.0
2018-Jun-04 09:58N 59°45' E 010°15'0 0.0
2018-Jun-04 09:28N 59°45' E 010°15'0 0.0
2018-Jun-04 08:58N 59°45' E 010°15'0 0.0
2018-Jun-04 08:28N 59°45' E 010°15'0 0.0
2018-Jun-04 07:58N 59°45' E 010°15'0 0.0
2018-Jun-04 07:28N 59°45' E 010°15'0 0.0
2018-Jun-04 06:58N 59°45' E 010°15'0 0.0
2018-Jun-04 06:28N 59°45' E 010°15'0 0.0
2018-Jun-04 05:58N 59°45' E 010°15'0 0.0
2018-Jun-04 05:28N 59°45' E 010°15'0 0.0
2018-Jun-04 04:58N 59°45' E 010°15'0 0.0
2018-Jun-04 04:28N 59°45' E 010°15'0 0.0
2018-Jun-04 03:58N 59°45' E 010°15'0 0.0
2018-Jun-04 03:28N 59°45' E 010°15'0 0.0
2018-Jun-04 02:58N 59°45' E 010°15'0 0.0
2018-Jun-04 02:28N 59°45' E 010°15'0 0.0
2018-Jun-04 01:58N 59°45' E 010°15'0 0.0
2018-Jun-04 01:28N 59°45' E 010°15'0 0.0
2018-Jun-04 00:58N 59°45' E 010°15'0 0.0
2018-Jun-04 00:28N 59°45' E 010°15'0 0.0
2018-Jun-03 23:58N 59°45' E 010°15'0 0.0
2018-Jun-03 23:28N 59°45' E 010°15'0 0.0
2018-Jun-03 22:58N 59°45' E 010°15'0 0.0
2018-Jun-03 22:28N 59°45' E 010°15'0 0.0
2018-Jun-03 21:58N 59°45' E 010°15'0 0.0
2018-Jun-03 21:28N 59°45' E 010°15'0 0.0
2018-Jun-03 20:58N 59°45' E 010°15'0 0.0
2018-Jun-03 20:28N 59°45' E 010°15'0 0.0
2018-Jun-03 19:58N 59°45' E 010°15'0 0.0
2018-Jun-03 19:28N 59°45' E 010°15'0 0.0
2018-Jun-03 18:58N 59°45' E 010°15'0 0.0
2018-Jun-03 18:28N 59°45' E 010°15'0 0.0
2018-Jun-03 17:58N 59°45' E 010°15'0 0.0
2018-Jun-03 17:28N 59°45' E 010°15'0 0.0
2018-Jun-03 16:58N 59°45' E 010°15'0 0.0
2018-Jun-03 16:28N 59°45' E 010°15'0 0.0
2018-Jun-03 15:58N 59°45' E 010°15'0 0.0
2018-Jun-03 15:28N 59°45' E 010°15'0 0.0
2018-Jun-03 14:58N 59°45' E 010°15'0 0.0
2018-Jun-03 14:28N 59°45' E 010°15'0 0.0
2018-Jun-03 13:58N 59°45' E 010°15'0 0.0
2018-Jun-03 13:28N 59°45' E 010°15'0 0.0
2018-Jun-03 12:58N 59°45' E 010°15'0 0.0
2018-Jun-03 12:28N 59°45' E 010°15'0 0.0
2018-Jun-03 11:58N 59°45' E 010°15'0 0.0
2018-Jun-03 11:28N 59°45' E 010°15'0 0.0
2018-Jun-03 10:58N 59°45' E 010°15'0 0.0
2018-Jun-03 10:28N 59°45' E 010°15'0 0.0
2018-Jun-03 10:00N 59°45' E 010°15'3 5.9
2018-Jun-03 09:29N 59°42' E 010°19'611.6
2018-Jun-03 09:00N 59°38' E 010°25'4 8.8
2018-Jun-03 08:30N 59°33' E 010°24'611.4
2018-Jun-03 08:01N 59°28' E 010°30'611.1
2018-Jun-03 07:31N 59°23' E 010°35'612.6
2018-Jun-03 07:01N 59°17' E 010°37'612.6
2018-Jun-03 06:31N 59°11' E 010°39'611.8
2018-Jun-03 06:01N 59°05' E 010°35'4 7.8
2018-Jun-03 05:31N 59°01' E 010°34'5 9.4
2018-Jun-03 05:01N 58°57' E 010°30'5 9.4
2018-Jun-03 04:31N 58°53' E 010°25'510.4
2018-Jun-03 04:01N 58°49' E 010°19'612.8
2018-Jun-03 03:30N 58°43' E 010°13'612.6
2018-Jun-03 03:01N 58°38' E 010°07'612.6
2018-Jun-03 02:31N 58°32' E 010°01'612.6
2018-Jun-03 02:01N 58°27' E 009°55'713.0
2018-Jun-03 01:31N 58°21' E 009°49'612.9
2018-Jun-03 01:00N 58°16' E 009°43'612.4
2018-Jun-03 00:31N 58°10' E 009°37'612.2
2018-Jun-03 00:00N 58°05' E 009°31'612.3
2018-Jun-02 23:31N 57°60' E 009°26'611.9
2018-Jun-02 23:01N 57°55' E 009°20'611.7
2018-Jun-02 22:31N 57°49' E 009°15'612.2
2018-Jun-02 22:00N 57°44' E 009°09'612.4
2018-Jun-02 21:31N 57°39' E 009°02'612.7
2018-Jun-02 21:00N 57°34' E 008°54'612.6
2018-Jun-02 20:30N 57°29' E 008°48'16812.1
2018-Jun-02 06:38N 54°48' E 007°26'5812.1
2018-Jun-02 01:52N 53°52' E 007°52'411.4
2018-Jun-02 01:31N 53°51' E 007°59'611.3
2018-Jun-02 01:00N 53°49' E 008°07'611.1
2018-Jun-02 00:30N 53°45' E 008°14'510.4
2018-Jun-02 00:00N 53°42' E 008°21'5 9.8
2018-Jun-01 23:30N 53°38' E 008°27'5 9.5
2018-Jun-01 23:00N 53°35' E 008°32'4 7.4
2018-Jun-01 22:30N 53°31' E 008°32'1 2.1
2018-Jun-01 22:01N 53°30' E 008°31'0 0.0
2018-Jun-01 21:30N 53°30' E 008°31'0 0.0
2018-Jun-01 21:00N 53°30' E 008°31'0 0.0
2018-Jun-01 20:27N 53°30' E 008°31'0 0.0
2018-Jun-01 20:00N 53°30' E 008°31'0 0.0
2018-Jun-01 19:30N 53°30' E 008°31'0 0.0
2018-Jun-01 19:00N 53°30' E 008°31'0 0.0
2018-Jun-01 18:31N 53°30' E 008°31'0 0.0
2018-Jun-01 18:01N 53°30' E 008°31'0 0.0
2018-Jun-01 17:30N 53°30' E 008°31'0 0.0
2018-Jun-01 17:00N 53°30' E 008°31'0 0.0
2018-Jun-01 16:30N 53°30' E 008°31'0 0.0
2018-Jun-01 16:00N 53°30' E 008°31'0 0.0
2018-Jun-01 15:30N 53°30' E 008°31'0 0.0
2018-Jun-01 15:00N 53°30' E 008°31'0 0.0
2018-Jun-01 14:30N 53°30' E 008°31'0 0.0
2018-Jun-01 14:00N 53°30' E 008°31'0 0.0
2018-Jun-01 13:21N 53°30' E 008°31'0 0.0
2018-Jun-01 13:00N 53°30' E 008°31'0 0.0
2018-Jun-01 12:30N 53°30' E 008°31'0 0.0
2018-Jun-01 12:00N 53°30' E 008°31'0 0.0
2018-Jun-01 11:27N 53°30' E 008°31'0 0.0
2018-Jun-01 10:51N 53°30' E 008°31'0 0.0
2018-Jun-01 10:30N 53°30' E 008°31'0 0.0
2018-Jun-01 10:00N 53°30' E 008°31'0 0.0
2018-Jun-01 09:30N 53°30' E 008°31'0 0.0
2018-Jun-01 09:00N 53°30' E 008°31'0 0.0
2018-Jun-01 08:30N 53°30' E 008°31'0 0.0
2018-Jun-01 08:00N 53°30' E 008°31'0 0.0
2018-Jun-01 07:24N 53°30' E 008°31'0 0.0
2018-Jun-01 07:00N 53°30' E 008°31'0 0.0
2018-Jun-01 06:30N 53°30' E 008°31'0 0.0
2018-Jun-01 06:00N 53°30' E 008°31'0 0.0
2018-Jun-01 05:30N 53°30' E 008°31'0 0.0
2018-Jun-01 05:00N 53°30' E 008°31'0 0.0
2018-Jun-01 04:30N 53°30' E 008°31'0 0.0
2018-Jun-01 04:00N 53°30' E 008°31'0 0.0
2018-Jun-01 03:27N 53°30' E 008°31'0 0.0
2018-Jun-01 03:00N 53°30' E 008°31'0 0.0
2018-Jun-01 02:30N 53°30' E 008°31'0 0.0
2018-Jun-01 02:00N 53°30' E 008°31'0 0.0
2018-Jun-01 01:30N 53°30' E 008°31'0 0.0
2018-Jun-01 01:00N 53°30' E 008°31'1 2.1
2018-Jun-01 00:30N 53°31' E 008°32'4 7.4
2018-Jun-01 00:00N 53°35' E 008°32'510.8
2018-May-31 23:30N 53°38' E 008°25'511.0
2018-May-31 23:00N 53°42' E 008°19'611.0
2018-May-31 22:30N 53°45' E 008°11'611.2
2018-May-31 22:00N 53°50' E 008°05'611.2
2018-May-31 21:30N 53°51' E 007°56'256 7.8
2018-May-30 12:38N 57°44' E 011°09'1 9.9
2018-May-30 12:30N 57°43' E 011°11'5 9.8
2018-May-30 12:00N 57°41' E 011°19'5 9.8
2018-May-30 11:30N 57°39' E 011°27'5 9.6
2018-May-30 11:00N 57°37' E 011°36'5 9.7
2018-May-30 10:30N 57°39' E 011°44'2 4.3
2018-May-30 10:00N 57°40' E 011°47'0 0.0
2018-May-30 09:30N 57°40' E 011°47'0 0.0
2018-May-30 09:00N 57°40' E 011°47'0 0.1
2018-May-30 08:30N 57°40' E 011°47'1 1.3
2018-May-30 08:01N 57°41' E 011°48'4 7.4
2018-May-30 07:30N 57°42' E 011°55'3 6.0
2018-May-30 07:01N 57°43' E 011°59'3 6.3
2018-May-30 06:30N 57°47' E 012°00'  
Track history (hours):
 
Tides and Currents Weather Stations Pressure Air Temp Water Temp Dewpoint Dewpoint Depression Visibility Wind Speed Wind Dir Waves Ship Positions

Lecko

Last reported at 2018-Jun-09 06:20 UTC. Time now 2018-Jun-21 19:51 UTC.
Position N 56°50' E 012°25'.
Warning: this ship's position is 12 days out of date.

Length 89 m; draft 3.7 m.

Type: Cargo ship. MMSI: 244063000.

Date/timePositionNaut miles runAvg speedWind from/ knotsBaromVisibWave heightAir tempDewpointWater temp
2018-Jun-09 06:20N 56°50' E 012°25'2 7.5
2018-Jun-09 06:00N 56°49' E 012°22'56 8.0
2018-Jun-08 22:57N 56°08' E 011°12'4 7.9
2018-Jun-08 22:29N 56°05' E 011°09'13 8.0
2018-Jun-08 20:54N 55°54' E 010°56'5 8.6
2018-Jun-08 20:22N 55°50' E 010°51'3 8.7
2018-Jun-08 19:59N 55°47' E 010°49'35 7.9
2018-Jun-08 15:34N 55°14' E 011°06'1 9.4
2018-Jun-08 15:31N 55°13' E 011°06'3 6.6
2018-Jun-08 15:01N 55°11' E 011°11'4 7.2
2018-Jun-08 14:30N 55°09' E 011°16'510.2
2018-Jun-08 14:01N 55°09' E 011°25'611.5
2018-Jun-08 13:30N 55°09' E 011°35'4 7.8
2018-Jun-08 12:57N 55°12' E 011°41'2 5.3
2018-Jun-08 12:30N 55°13' E 011°45'1 0.1
2018-Jun-08 04:18N 55°14' E 011°45'4 0.4
2018-Jun-07 19:17N 55°11' E 011°40'2 6.1
2018-Jun-07 19:00N 55°10' E 011°38'611.0
2018-Jun-07 18:30N 55°09' E 011°29'510.1
2018-Jun-07 18:00N 55°07' E 011°20'4 7.1
2018-Jun-07 17:30N 55°09' E 011°14'5 9.2
2018-Jun-07 17:00N 55°12' E 011°08'80 8.2
2018-Jun-07 07:19N 56°31' E 011°02'3 9.5
2018-Jun-07 07:00N 56°34' E 011°01'5 9.4
2018-Jun-07 06:30N 56°39' E 011°00'5 9.4
2018-Jun-07 06:00N 56°44' E 010°59'5 9.4
2018-Jun-07 05:30N 56°48' E 010°56'5 9.6
2018-Jun-07 05:00N 56°53' E 010°54'5 9.8
2018-Jun-07 04:30N 56°57' E 010°52'510.0
2018-Jun-07 03:59N 57°02' E 010°49'510.1
2018-Jun-07 03:30N 57°07' E 010°47'510.3
2018-Jun-07 02:59N 57°12' E 010°44'5 9.9
2018-Jun-07 02:30N 57°17' E 010°42'6 9.7
2018-Jun-07 01:56N 57°22' E 010°42'4 9.7
2018-Jun-07 01:30N 57°27' E 010°43'5 9.7
2018-Jun-07 01:00N 57°31' E 010°43'510.2
2018-Jun-07 00:30N 57°36' E 010°44'510.1
2018-Jun-07 00:00N 57°41' E 010°45'510.0
2018-Jun-06 23:30N 57°46' E 010°46'5 9.7
2018-Jun-06 23:00N 57°51' E 010°46'510.0
2018-Jun-06 22:30N 57°56' E 010°45'5 9.7
2018-Jun-06 22:00N 58°01' E 010°45'6 9.9
2018-Jun-06 21:26N 58°07' E 010°45'6 9.7
2018-Jun-06 20:52N 58°12' E 010°45'4 9.8
2018-Jun-06 20:26N 58°16' E 010°45'4 9.9
2018-Jun-06 20:00N 58°21' E 010°44'5 9.7
2018-Jun-06 19:30N 58°26' E 010°44'5 9.6
2018-Jun-06 19:00N 58°30' E 010°44'5 9.8
2018-Jun-06 18:30N 58°35' E 010°43'510.3
2018-Jun-06 18:00N 58°40' E 010°43'611.4
2018-Jun-06 17:30N 58°46' E 010°43'611.4
2018-Jun-06 17:00N 58°52' E 010°43'611.3
2018-Jun-06 16:30N 58°57' E 010°43'510.4
2018-Jun-06 16:01N 59°02' E 010°47'5 9.0
2018-Jun-06 15:30N 59°01' E 010°55'5 9.2
2018-Jun-06 15:00N 59°06' E 010°58'510.7
2018-Jun-06 14:30N 59°11' E 010°57'0 0.1
2018-Jun-06 14:00N 59°11' E 010°57'0 0.0
2018-Jun-06 13:30N 59°11' E 010°57'0 0.0
2018-Jun-06 13:00N 59°11' E 010°57'0 0.0
2018-Jun-06 12:30N 59°11' E 010°57'0 0.0
2018-Jun-06 12:00N 59°11' E 010°57'0 0.0
2018-Jun-06 11:30N 59°11' E 010°57'0 0.0
2018-Jun-06 11:00N 59°11' E 010°57'0 0.0
2018-Jun-06 10:30N 59°11' E 010°57'0 0.0
2018-Jun-06 10:00N 59°11' E 010°57'0 0.0
2018-Jun-06 09:30N 59°11' E 010°57'0 0.0
2018-Jun-06 09:00N 59°11' E 010°57'0 0.0
2018-Jun-06 08:30N 59°11' E 010°57'0 0.0
2018-Jun-06 08:00N 59°11' E 010°57'0 0.0
2018-Jun-06 07:30N 59°11' E 010°57'0 0.0
2018-Jun-06 07:00N 59°11' E 010°57'0 0.0
2018-Jun-06 06:30N 59°11' E 010°57'0 0.0
2018-Jun-06 06:00N 59°11' E 010°57'4 8.2
2018-Jun-06 05:30N 59°07' E 010°58'510.8
2018-Jun-06 05:01N 59°01' E 010°58'5 9.3
2018-Jun-06 04:30N 59°02' E 010°49'4 8.5
2018-Jun-06 04:00N 58°59' E 010°43'510.6
2018-Jun-06 03:30N 58°54' E 010°45'510.5
2018-Jun-06 03:00N 58°49' E 010°47'510.6
2018-Jun-06 02:30N 58°44' E 010°48'510.2
2018-Jun-06 02:00N 58°39' E 010°50'510.2
2018-Jun-06 01:30N 58°34' E 010°52'510.2
2018-Jun-06 01:00N 58°29' E 010°53'510.3
2018-Jun-06 00:29N 58°24' E 010°57'610.2
2018-Jun-05 23:52N 58°18' E 011°01'2310.4
2018-Jun-05 21:39N 57°56' E 011°16'610.2
2018-Jun-05 21:06N 57°51' E 011°19'1 9.9
2018-Jun-05 21:00N 57°50' E 011°20'5 9.8
2018-Jun-05 20:30N 57°45' E 011°23'5 9.9
2018-Jun-05 20:00N 57°41' E 011°26'510.2
2018-Jun-05 19:30N 57°36' E 011°30'510.7
2018-Jun-05 19:00N 57°31' E 011°35'510.6
2018-Jun-05 18:30N 57°27' E 011°40'2 0.2
2018-Jun-05 04:06N 57°25' E 011°42'111.8
2018-Jun-05 04:00N 57°26' E 011°41'611.7
2018-Jun-05 03:30N 57°31' E 011°37'611.4
2018-Jun-05 03:00N 57°36' E 011°33'510.9
2018-Jun-05 02:30N 57°41' E 011°29'510.6
2018-Jun-05 02:00N 57°46' E 011°25'610.7
2018-Jun-05 01:28N 57°52' E 011°22'610.5
2018-Jun-05 00:55N 57°57' E 011°17'3210.5
2018-Jun-04 21:54N 58°26' E 010°55'410.8
2018-Jun-04 21:30N 58°30' E 010°53'510.8
2018-Jun-04 21:00N 58°36' E 010°50'511.0
2018-Jun-04 20:30N 58°41' E 010°47'611.2
2018-Jun-04 20:00N 58°46' E 010°44'611.2
2018-Jun-04 19:30N 58°52' E 010°42'611.6
2018-Jun-04 19:00N 58°57' E 010°38'611.7
2018-Jun-04 18:30N 59°03' E 010°35'5 9.4
2018-Jun-04 18:00N 59°08' E 010°34'611.2
2018-Jun-04 17:30N 59°13' E 010°37'611.8
2018-Jun-04 17:00N 59°19' E 010°35'611.9
2018-Jun-04 16:30N 59°25' E 010°33'611.8
2018-Jun-04 16:00N 59°30' E 010°27'4 8.9
2018-Jun-04 15:30N 59°34' E 010°25'4 7.5
2018-Jun-04 15:00N 59°38' E 010°25'611.0
2018-Jun-04 14:30N 59°43' E 010°19'3 5.6
2018-Jun-04 14:00N 59°45' E 010°15'0 0.0
2018-Jun-04 13:28N 59°45' E 010°15'0 0.0
2018-Jun-04 12:58N 59°45' E 010°15'0 0.0
2018-Jun-04 12:28N 59°45' E 010°15'0 0.0
2018-Jun-04 11:58N 59°45' E 010°15'0 0.0
2018-Jun-04 11:28N 59°45' E 010°15'0 0.0
2018-Jun-04 10:58N 59°45' E 010°15'0 0.0
2018-Jun-04 10:28N 59°45' E 010°15'0 0.0
2018-Jun-04 09:58N 59°45' E 010°15'0 0.0
2018-Jun-04 09:28N 59°45' E 010°15'0 0.0
2018-Jun-04 08:58N 59°45' E 010°15'0 0.0
2018-Jun-04 08:28N 59°45' E 010°15'0 0.0
2018-Jun-04 07:58N 59°45' E 010°15'0 0.0
2018-Jun-04 07:28N 59°45' E 010°15'0 0.0
2018-Jun-04 06:58N 59°45' E 010°15'0 0.0
2018-Jun-04 06:28N 59°45' E 010°15'0 0.0
2018-Jun-04 05:58N 59°45' E 010°15'0 0.0
2018-Jun-04 05:28N 59°45' E 010°15'0 0.0
2018-Jun-04 04:58N 59°45' E 010°15'0 0.0
2018-Jun-04 04:28N 59°45' E 010°15'0 0.0
2018-Jun-04 03:58N 59°45' E 010°15'0 0.0
2018-Jun-04 03:28N 59°45' E 010°15'0 0.0
2018-Jun-04 02:58N 59°45' E 010°15'0 0.0
2018-Jun-04 02:28N 59°45' E 010°15'0 0.0
2018-Jun-04 01:58N 59°45' E 010°15'0 0.0
2018-Jun-04 01:28N 59°45' E 010°15'0 0.0
2018-Jun-04 00:58N 59°45' E 010°15'0 0.0
2018-Jun-04 00:28N 59°45' E 010°15'0 0.0
2018-Jun-03 23:58N 59°45' E 010°15'0 0.0
2018-Jun-03 23:28N 59°45' E 010°15'0 0.0
2018-Jun-03 22:58N 59°45' E 010°15'0 0.0
2018-Jun-03 22:28N 59°45' E 010°15'0 0.0
2018-Jun-03 21:58N 59°45' E 010°15'0 0.0
2018-Jun-03 21:28N 59°45' E 010°15'0 0.0
2018-Jun-03 20:58N 59°45' E 010°15'0 0.0
2018-Jun-03 20:28N 59°45' E 010°15'0 0.0
2018-Jun-03 19:58N 59°45' E 010°15'0 0.0
2018-Jun-03 19:28N 59°45' E 010°15'0 0.0
2018-Jun-03 18:58N 59°45' E 010°15'0 0.0
2018-Jun-03 18:28N 59°45' E 010°15'0 0.0
2018-Jun-03 17:58N 59°45' E 010°15'0 0.0
2018-Jun-03 17:28N 59°45' E 010°15'0 0.0
2018-Jun-03 16:58N 59°45' E 010°15'0 0.0
2018-Jun-03 16:28N 59°45' E 010°15'0 0.0
2018-Jun-03 15:58N 59°45' E 010°15'0 0.0
2018-Jun-03 15:28N 59°45' E 010°15'0 0.0
2018-Jun-03 14:58N 59°45' E 010°15'0 0.0
2018-Jun-03 14:28N 59°45' E 010°15'0 0.0
2018-Jun-03 13:58N 59°45' E 010°15'0 0.0
2018-Jun-03 13:28N 59°45' E 010°15'0 0.0
2018-Jun-03 12:58N 59°45' E 010°15'0 0.0
2018-Jun-03 12:28N 59°45' E 010°15'0 0.0
2018-Jun-03 11:58N 59°45' E 010°15'0 0.0
2018-Jun-03 11:28N 59°45' E 010°15'0 0.0
2018-Jun-03 10:58N 59°45' E 010°15'0 0.0
2018-Jun-03 10:28N 59°45' E 010°15'0 0.0
2018-Jun-03 10:00N 59°45' E 010°15'3 5.9
2018-Jun-03 09:29N 59°42' E 010°19'611.6
2018-Jun-03 09:00N 59°38' E 010°25'4 8.8
2018-Jun-03 08:30N 59°33' E 010°24'611.4
2018-Jun-03 08:01N 59°28' E 010°30'611.1
2018-Jun-03 07:31N 59°23' E 010°35'612.6
2018-Jun-03 07:01N 59°17' E 010°37'612.6
2018-Jun-03 06:31N 59°11' E 010°39'611.8
2018-Jun-03 06:01N 59°05' E 010°35'4 7.8
2018-Jun-03 05:31N 59°01' E 010°34'5 9.4
2018-Jun-03 05:01N 58°57' E 010°30'5 9.4
2018-Jun-03 04:31N 58°53' E 010°25'510.4
2018-Jun-03 04:01N 58°49' E 010°19'612.8
2018-Jun-03 03:30N 58°43' E 010°13'612.6
2018-Jun-03 03:01N 58°38' E 010°07'612.6
2018-Jun-03 02:31N 58°32' E 010°01'612.6
2018-Jun-03 02:01N 58°27' E 009°55'713.0
2018-Jun-03 01:31N 58°21' E 009°49'612.9
2018-Jun-03 01:00N 58°16' E 009°43'612.4
2018-Jun-03 00:31N 58°10' E 009°37'612.2
2018-Jun-03 00:00N 58°05' E 009°31'612.3
2018-Jun-02 23:31N 57°60' E 009°26'611.9
2018-Jun-02 23:01N 57°55' E 009°20'611.7
2018-Jun-02 22:31N 57°49' E 009°15'612.2
2018-Jun-02 22:00N 57°44' E 009°09'612.4
2018-Jun-02 21:31N 57°39' E 009°02'612.7
2018-Jun-02 21:00N 57°34' E 008°54'612.6
2018-Jun-02 20:30N 57°29' E 008°48'16812.1
2018-Jun-02 06:38N 54°48' E 007°26'5812.1
2018-Jun-02 01:52N 53°52' E 007°52'411.4
2018-Jun-02 01:31N 53°51' E 007°59'611.3
2018-Jun-02 01:00N 53°49' E 008°07'611.1
2018-Jun-02 00:30N 53°45' E 008°14'510.4
2018-Jun-02 00:00N 53°42' E 008°21'5 9.8
2018-Jun-01 23:30N 53°38' E 008°27'5 9.5
2018-Jun-01 23:00N 53°35' E 008°32'4 7.4
2018-Jun-01 22:30N 53°31' E 008°32'1 2.1
2018-Jun-01 22:01N 53°30' E 008°31'0 0.0
2018-Jun-01 21:30N 53°30' E 008°31'0 0.0
2018-Jun-01 21:00N 53°30' E 008°31'0 0.0
2018-Jun-01 20:27N 53°30' E 008°31'0 0.0
2018-Jun-01 20:00N 53°30' E 008°31'0 0.0
2018-Jun-01 19:30N 53°30' E 008°31'0 0.0
2018-Jun-01 19:00N 53°30' E 008°31'0 0.0
2018-Jun-01 18:31N 53°30' E 008°31'0 0.0
2018-Jun-01 18:01N 53°30' E 008°31'0 0.0
2018-Jun-01 17:30N 53°30' E 008°31'0 0.0
2018-Jun-01 17:00N 53°30' E 008°31'0 0.0
2018-Jun-01 16:30N 53°30' E 008°31'0 0.0
2018-Jun-01 16:00N 53°30' E 008°31'0 0.0
2018-Jun-01 15:30N 53°30' E 008°31'0 0.0
2018-Jun-01 15:00N 53°30' E 008°31'0 0.0
2018-Jun-01 14:30N 53°30' E 008°31'0 0.0
2018-Jun-01 14:00N 53°30' E 008°31'0 0.0
2018-Jun-01 13:21N 53°30' E 008°31'0 0.0
2018-Jun-01 13:00N 53°30' E 008°31'0 0.0
2018-Jun-01 12:30N 53°30' E 008°31'0 0.0
2018-Jun-01 12:00N 53°30' E 008°31'0 0.0
2018-Jun-01 11:27N 53°30' E 008°31'0 0.0
2018-Jun-01 10:51N 53°30' E 008°31'0 0.0
2018-Jun-01 10:30N 53°30' E 008°31'0 0.0
2018-Jun-01 10:00N 53°30' E 008°31'0 0.0
2018-Jun-01 09:30N 53°30' E 008°31'0 0.0
2018-Jun-01 09:00N 53°30' E 008°31'0 0.0
2018-Jun-01 08:30N 53°30' E 008°31'0 0.0
2018-Jun-01 08:00N 53°30' E 008°31'0 0.0
2018-Jun-01 07:24N 53°30' E 008°31'0 0.0
2018-Jun-01 07:00N 53°30' E 008°31'0 0.0
2018-Jun-01 06:30N 53°30' E 008°31'0 0.0
2018-Jun-01 06:00N 53°30' E 008°31'0 0.0
2018-Jun-01 05:30N 53°30' E 008°31'0 0.0
2018-Jun-01 05:00N 53°30' E 008°31'0 0.0
2018-Jun-01 04:30N 53°30' E 008°31'0 0.0
2018-Jun-01 04:00N 53°30' E 008°31'0 0.0
2018-Jun-01 03:27N 53°30' E 008°31'0 0.0
2018-Jun-01 03:00N 53°30' E 008°31'0 0.0
2018-Jun-01 02:30N 53°30' E 008°31'0 0.0
2018-Jun-01 02:00N 53°30' E 008°31'0 0.0
2018-Jun-01 01:30N 53°30' E 008°31'0 0.0
2018-Jun-01 01:00N 53°30' E 008°31'1 2.1
2018-Jun-01 00:30N 53°31' E 008°32'4 7.4
2018-Jun-01 00:00N 53°35' E 008°32'510.8
2018-May-31 23:30N 53°38' E 008°25'511.0
2018-May-31 23:00N 53°42' E 008°19'611.0
2018-May-31 22:30N 53°45' E 008°11'611.2
2018-May-31 22:00N 53°50' E 008°05'611.2
2018-May-31 21:30N 53°51' E 007°56'256 7.8
2018-May-30 12:38N 57°44' E 011°09'1 9.9
2018-May-30 12:30N 57°43' E 011°11'5 9.8
2018-May-30 12:00N 57°41' E 011°19'5 9.8
2018-May-30 11:30N 57°39' E 011°27'5 9.6
2018-May-30 11:00N 57°37' E 011°36'5 9.7
2018-May-30 10:30N 57°39' E 011°44'2 4.3
2018-May-30 10:00N 57°40' E 011°47'0 0.0
2018-May-30 09:30N 57°40' E 011°47'0 0.0
2018-May-30 09:00N 57°40' E 011°47'0 0.1
2018-May-30 08:30N 57°40' E 011°47'1 1.3
2018-May-30 08:01N 57°41' E 011°48'4 7.4
2018-May-30 07:30N 57°42' E 011°55'3 6.0
2018-May-30 07:01N 57°43' E 011°59'3 6.3
2018-May-30 06:30N 57°47' E 012°00'  

Dump ship's entire track history